createdAt,value
2018-07-30T09:24:17.325Z,5.83
2018-07-30T09:26:46.321Z,5.10
2018-07-30T09:29:15.254Z,4.50
2018-07-30T09:31:44.137Z,3.93
2018-07-30T09:34:13.848Z,4.67
2018-07-30T09:36:42.828Z,5.50
2018-07-30T09:39:12.757Z,4.50
2018-07-30T09:41:41.761Z,4.20
2018-07-30T09:44:10.715Z,4.50
2018-07-30T09:46:40.264Z,4.53
2018-07-30T09:49:09.385Z,4.33
2018-07-30T09:51:38.283Z,5.00
2018-07-30T09:54:07.549Z,4.50
2018-07-30T09:56:38.471Z,4.17
2018-07-30T09:59:07.641Z,4.87
2018-07-30T10:01:36.862Z,5.03
2018-07-30T10:04:05.977Z,4.23
2018-07-30T10:06:34.872Z,4.40
2018-07-30T10:09:03.700Z,4.10
2018-07-30T10:11:32.512Z,4.70
2018-07-30T10:14:01.370Z,4.80
2018-07-30T10:16:30.273Z,4.30
2018-07-30T10:18:59.301Z,4.97
2018-07-30T10:21:28.217Z,4.30
2018-07-30T10:23:57.189Z,4.27
2018-07-30T10:26:26.225Z,4.70
2018-07-30T10:28:55.069Z,4.20
2018-07-30T10:31:23.926Z,3.83
2018-07-30T10:33:53.236Z,3.70
2018-07-30T10:36:22.084Z,4.30
2018-07-30T10:38:50.917Z,4.50
2018-07-30T10:41:20.001Z,3.83
2018-07-30T10:43:49.729Z,4.10
2018-07-30T10:46:18.864Z,5.00
2018-07-30T10:48:47.934Z,4.80
2018-07-30T10:51:16.623Z,3.87
2018-07-30T10:53:45.695Z,4.70
2018-07-30T10:56:21.907Z,5.20
2018-07-30T10:58:51.003Z,4.63
2018-07-30T11:01:19.767Z,3.70
2018-07-30T11:03:48.793Z,4.53
2018-07-30T11:06:17.575Z,4.97
2018-07-30T11:08:46.473Z,4.37
2018-07-30T11:11:15.395Z,4.13
2018-07-30T11:13:45.605Z,4.70
2018-07-30T11:16:14.723Z,3.83
2018-07-30T11:18:43.736Z,3.70
2018-07-30T11:21:12.693Z,4.30
2018-07-30T11:23:41.580Z,4.63
2018-07-30T11:26:10.558Z,4.10
2018-07-30T11:28:39.415Z,5.10
2018-07-30T11:31:08.481Z,4.67
2018-07-30T11:33:37.386Z,4.70
2018-07-30T11:36:06.224Z,4.47
2018-07-30T11:38:34.965Z,4.57
2018-07-30T11:41:03.656Z,4.07
2018-07-30T11:43:32.426Z,4.57
2018-07-30T11:46:01.350Z,4.30
2018-07-30T11:48:30.458Z,4.43
2018-07-30T11:50:59.168Z,3.87
2018-07-30T11:53:28.188Z,4.27
2018-07-30T11:55:57.264Z,4.63
2018-07-30T11:58:26.092Z,5.10
2018-07-30T12:00:54.945Z,4.50
2018-07-30T12:03:29.847Z,3.47
2018-07-30T12:05:58.767Z,3.80
2018-07-30T12:08:27.495Z,4.00
2018-07-30T12:10:56.480Z,3.83
2018-07-30T12:13:25.335Z,3.93
2018-07-30T12:15:54.205Z,4.27
2018-07-30T12:18:23.138Z,9.37
2018-07-30T12:20:52.063Z,6.13
2018-07-30T12:23:21.551Z,3.80
2018-07-30T12:25:50.502Z,5.40
2018-07-30T12:28:19.230Z,4.10
2018-07-30T12:30:48.394Z,7.40
2018-07-30T12:33:17.293Z,5.20
2018-07-30T12:35:46.198Z,4.83
2018-07-30T12:38:15.182Z,6.23
2018-07-30T12:40:44.577Z,8.83
2018-07-30T12:43:13.311Z,5.43
2018-07-30T12:45:44.190Z,5.97
2018-07-30T12:48:13.198Z,4.73
2018-07-30T12:50:42.286Z,4.33
2018-07-30T12:53:11.079Z,4.63
2018-07-30T12:55:40.169Z,4.67
2018-07-30T12:58:08.953Z,3.93
2018-07-30T13:00:38.640Z,5.00
2018-07-30T13:03:07.806Z,3.67
2018-07-30T13:05:37.265Z,5.20
2018-07-30T13:08:06.150Z,4.50
2018-07-30T13:10:35.118Z,4.17
2018-07-30T13:13:04.137Z,4.20
2018-07-30T13:15:33.117Z,3.90
2018-07-30T13:18:02.042Z,4.27
2018-07-30T13:20:30.898Z,4.20
2018-07-30T13:22:59.688Z,3.30
2018-07-30T13:25:28.617Z,4.50
2018-07-30T13:27:57.483Z,4.20
2018-07-30T13:30:26.228Z,4.13
2018-07-30T13:32:55.170Z,4.40
2018-07-30T13:35:24.205Z,3.60
2018-07-30T13:37:53.186Z,4.10
2018-07-30T13:40:21.936Z,4.40
2018-07-30T13:42:51.291Z,4.27
2018-07-30T13:45:20.012Z,4.00
2018-07-30T13:47:48.829Z,4.60
2018-07-30T13:50:17.789Z,3.73
2018-07-30T13:52:46.807Z,4.10
2018-07-30T13:55:15.589Z,4.50
2018-07-30T13:57:44.447Z,4.40
2018-07-30T14:00:13.216Z,4.07
2018-07-30T14:02:41.976Z,4.40
2018-07-30T14:05:11.070Z,3.53
2018-07-30T14:07:40.226Z,4.60
2018-07-30T14:10:09.879Z,3.40
2018-07-30T14:12:38.998Z,4.50
2018-07-30T14:15:08.678Z,4.20
2018-07-30T14:17:37.787Z,4.20
2018-07-30T14:20:07.921Z,4.73
2018-07-30T14:22:36.773Z,4.20
2018-07-30T14:25:05.926Z,4.23
2018-07-30T14:27:35.058Z,4.70
2018-07-30T14:30:04.947Z,3.53
2018-07-30T14:32:33.684Z,3.80
2018-07-30T14:35:02.626Z,3.80
2018-07-30T14:37:31.439Z,3.50
2018-07-30T14:40:01.236Z,3.97
2018-07-30T14:42:30.108Z,3.80
2018-07-30T14:44:58.856Z,4.20
2018-07-30T14:47:28.462Z,3.87
2018-07-30T14:49:57.361Z,3.90
2018-07-30T14:52:26.261Z,3.50
2018-07-30T14:54:55.819Z,3.77
2018-07-30T14:57:24.838Z,3.93
2018-07-30T14:59:54.112Z,4.17
2018-07-30T15:02:22.852Z,4.33
2018-07-30T15:04:51.830Z,4.00
2018-07-30T15:07:20.605Z,4.20
2018-07-30T15:09:49.279Z,3.80
2018-07-30T15:12:18.590Z,4.30
2018-07-30T15:14:48.090Z,4.40
2018-07-30T15:17:16.898Z,3.43
2018-07-30T15:19:45.899Z,4.53
2018-07-30T15:22:14.919Z,3.60
2018-07-30T15:24:43.651Z,4.13
2018-07-30T15:27:12.551Z,4.47
2018-07-30T15:29:41.297Z,4.50
2018-07-30T15:32:10.369Z,4.43
2018-07-30T15:34:39.245Z,4.20
2018-07-30T15:37:07.903Z,4.37
2018-07-30T15:39:36.608Z,3.37
2018-07-30T15:42:05.260Z,3.73
2018-07-30T15:44:33.986Z,3.50
2018-07-30T15:47:02.870Z,3.47
2018-07-30T15:49:31.674Z,3.30
2018-07-30T15:52:00.431Z,3.90
2018-07-30T15:54:29.209Z,4.60
2018-07-30T15:56:57.900Z,4.13
2018-07-30T15:59:26.814Z,4.13
2018-07-30T16:01:55.753Z,4.50
2018-07-30T16:04:24.660Z,4.43
2018-07-30T16:06:53.348Z,3.93
2018-07-30T16:09:22.280Z,4.40
2018-07-30T16:11:51.240Z,4.17
2018-07-30T16:14:20.578Z,3.90
2018-07-30T16:16:49.372Z,4.90
2018-07-30T16:19:18.196Z,4.73
2018-07-30T16:21:53.516Z,3.87
2018-07-30T16:24:22.181Z,3.83
2018-07-30T16:26:51.298Z,4.00
2018-07-30T16:29:19.996Z,4.00
2018-07-30T16:31:49.548Z,3.87
2018-07-30T16:34:19.364Z,4.20
2018-07-30T16:36:49.476Z,4.27
2018-07-30T16:39:18.139Z,4.23
2018-07-30T16:41:47.987Z,3.60
2018-07-30T16:44:16.711Z,4.50
2018-07-30T16:46:45.441Z,4.53
2018-07-30T16:49:15.211Z,4.90
2018-07-30T16:51:44.025Z,4.20
2018-07-30T16:54:12.776Z,5.30
2018-07-30T16:56:41.686Z,4.87
2018-07-30T16:59:10.532Z,4.07
2018-07-30T17:01:39.300Z,4.63
2018-07-30T17:04:08.136Z,4.10
2018-07-30T17:06:36.830Z,3.80
2018-07-30T17:09:09.390Z,4.17
2018-07-30T17:11:38.337Z,5.33
2018-07-30T17:14:07.122Z,5.03
2018-07-30T17:16:35.977Z,5.10
2018-07-30T17:19:05.049Z,3.70
2018-07-30T17:21:33.861Z,5.30
2018-07-30T17:24:02.873Z,4.03
2018-07-30T17:26:31.669Z,4.13
2018-07-30T17:29:00.502Z,4.00
2018-07-30T17:31:29.324Z,4.63
2018-07-30T17:33:58.547Z,4.27
2018-07-30T17:36:27.385Z,4.63
2018-07-30T17:38:56.387Z,4.30
2018-07-30T17:41:25.094Z,4.60
2018-07-30T17:43:54.009Z,5.03
2018-07-30T17:46:22.967Z,5.47
2018-07-30T17:48:51.793Z,5.70
2018-07-30T17:51:21.639Z,5.57
2018-07-30T17:53:50.501Z,5.53
2018-07-30T17:56:19.237Z,5.23
2018-07-30T17:58:48.372Z,5.27
2018-07-30T18:01:17.458Z,5.73
2018-07-30T18:03:46.445Z,6.07
2018-07-30T18:06:15.289Z,4.90
2018-07-30T18:08:44.112Z,5.20
2018-07-30T18:11:12.815Z,5.10
2018-07-30T18:13:41.808Z,4.60
2018-07-30T18:16:10.820Z,4.43
2018-07-30T18:18:39.658Z,5.00
2018-07-30T18:21:08.512Z,4.27
2018-07-30T18:23:37.366Z,4.80
2018-07-30T18:26:06.183Z,5.07
2018-07-30T18:28:35.022Z,4.57
2018-07-30T18:31:03.854Z,5.20
2018-07-30T18:33:32.592Z,4.57
2018-07-30T18:36:01.353Z,5.80
2018-07-30T18:38:30.124Z,4.97
2018-07-30T18:40:59.026Z,5.10
2018-07-30T18:43:27.949Z,5.37
2018-07-30T18:45:56.663Z,5.47
2018-07-30T18:48:25.493Z,5.03
2018-07-30T18:50:54.179Z,5.00
2018-07-30T18:53:23.279Z,5.13
2018-07-30T18:55:51.944Z,5.90
2018-07-30T18:58:20.614Z,5.67
2018-07-30T19:00:49.328Z,5.80
2018-07-30T19:03:18.211Z,6.13
2018-07-30T19:05:47.488Z,6.10
2018-07-30T19:08:16.137Z,6.30
2018-07-30T19:10:44.901Z,5.83
2018-07-30T19:13:14.206Z,6.10
2018-07-30T19:15:43.221Z,5.80
2018-07-30T19:18:12.081Z,5.33
2018-07-30T19:20:40.805Z,5.07
2018-07-30T19:23:09.577Z,5.43
2018-07-30T19:25:38.277Z,4.67
2018-07-30T19:28:07.314Z,5.47
2018-07-30T19:30:36.279Z,5.37
2018-07-30T19:33:04.981Z,5.20
2018-07-30T19:35:33.811Z,4.73
2018-07-30T19:38:02.569Z,4.50
2018-07-30T19:40:31.493Z,5.87
2018-07-30T19:43:00.374Z,5.97
2018-07-30T19:45:29.064Z,6.00
2018-07-30T19:47:58.090Z,5.70
2018-07-30T19:50:26.785Z,6.90
2018-07-30T19:52:55.625Z,5.13
2018-07-30T19:55:24.323Z,6.30
2018-07-30T19:57:53.377Z,5.83
2018-07-30T20:00:21.989Z,6.20
2018-07-30T20:02:50.796Z,7.30
2018-07-30T20:05:19.563Z,6.70
2018-07-30T20:07:48.479Z,7.33
2018-07-30T20:10:17.456Z,6.00
2018-07-30T20:12:46.366Z,7.03
2018-07-30T20:15:15.015Z,6.57
2018-07-30T20:17:43.710Z,6.67
2018-07-30T20:20:14.818Z,6.60
2018-07-30T20:22:44.157Z,6.37
2018-07-30T20:25:13.578Z,8.33
2018-07-30T20:27:43.080Z,7.20
2018-07-30T20:30:11.923Z,6.17
2018-07-30T20:32:40.761Z,6.90
2018-07-30T20:35:09.798Z,6.70
2018-07-30T20:37:38.439Z,6.67
2018-07-30T20:40:07.342Z,7.77
2018-07-30T20:42:36.147Z,7.33
2018-07-30T20:45:05.234Z,7.53
2018-07-30T20:47:33.990Z,8.60
2018-07-30T20:50:02.906Z,7.30
2018-07-30T20:52:31.686Z,6.30
2018-07-30T20:55:00.697Z,8.23
2018-07-30T20:57:29.345Z,6.63
2018-07-30T20:59:58.254Z,6.53
2018-07-30T21:02:26.966Z,6.40
2018-07-30T21:04:55.698Z,6.40
2018-07-30T21:07:24.428Z,5.80
2018-07-30T21:09:53.142Z,6.10
2018-07-30T21:12:21.843Z,6.43
2018-07-30T21:14:50.673Z,7.30
2018-07-30T21:17:19.516Z,6.87
2018-07-30T21:19:48.247Z,6.90
2018-07-30T21:22:17.400Z,7.20
2018-07-30T21:24:46.131Z,6.47
2018-07-30T21:27:14.811Z,6.97
2018-07-30T21:29:43.510Z,7.00
2018-07-30T21:32:12.217Z,6.43
2018-07-30T21:34:40.981Z,7.10
2018-07-30T21:37:09.734Z,7.10
2018-07-30T21:39:38.460Z,7.30
2018-07-30T21:42:07.482Z,6.33
2018-07-30T21:44:36.264Z,6.40
2018-07-30T21:47:04.912Z,6.70
2018-07-30T21:49:33.728Z,6.73
2018-07-30T21:52:02.504Z,6.43
2018-07-30T21:54:31.287Z,7.10
2018-07-30T21:57:00.094Z,6.50
2018-07-30T21:59:28.930Z,6.80
2018-07-30T22:01:57.657Z,6.97
2018-07-30T22:04:26.452Z,7.30
2018-07-30T22:06:55.260Z,5.40
2018-07-30T22:09:24.127Z,6.57
2018-07-30T22:11:52.832Z,6.77
2018-07-30T22:14:21.586Z,6.63
2018-07-30T22:16:50.351Z,6.50
2018-07-30T22:19:19.074Z,5.90
2018-07-30T22:21:48.018Z,6.90
2018-07-30T22:24:16.827Z,7.10
2018-07-30T22:26:45.674Z,6.73
2018-07-30T22:29:14.538Z,7.17
2018-07-30T22:31:43.565Z,7.30
2018-07-30T22:34:12.882Z,7.40
2018-07-30T22:36:41.783Z,6.93
2018-07-30T22:39:12.165Z,7.20
2018-07-30T22:41:41.190Z,7.00
2018-07-30T22:44:10.060Z,6.60
2018-07-30T22:46:38.724Z,6.60
2018-07-30T22:49:07.441Z,6.93
2018-07-30T22:51:36.096Z,7.67
2018-07-30T22:54:04.922Z,7.77
2018-07-30T22:56:33.706Z,7.03
2018-07-30T22:59:02.415Z,8.17
2018-07-30T23:01:31.172Z,7.50
2018-07-30T23:03:59.842Z,7.33
2018-07-30T23:06:30.278Z,7.10
2018-07-30T23:09:03.106Z,6.60
2018-07-30T23:11:32.047Z,8.60
2018-07-30T23:14:00.829Z,7.20
2018-07-30T23:16:29.482Z,7.83
2018-07-30T23:18:59.546Z,7.10
2018-07-30T23:21:28.218Z,7.80
2018-07-30T23:23:57.125Z,7.10
2018-07-30T23:26:26.085Z,7.70
2018-07-30T23:28:54.768Z,8.10
2018-07-30T23:31:23.828Z,7.80
2018-07-30T23:33:52.643Z,7.27
2018-07-30T23:36:21.334Z,7.60
2018-07-30T23:38:50.181Z,7.33
2018-07-30T23:41:18.867Z,6.80
2018-07-30T23:43:47.696Z,7.97
2018-07-30T23:46:16.392Z,7.70
2018-07-30T23:48:45.552Z,7.90
2018-07-30T23:51:14.797Z,7.83
2018-07-30T23:53:45.204Z,7.90
2018-07-30T23:56:15.789Z,8.80
2018-07-30T23:58:45.294Z,7.67
